sensor_id;sensor_type;location;lat;lon;timestamp;pressure;altitude;pressure_sealevel;temperature;humidity
8069;BME280;4077;43.702;24.896;2023-02-23T00:01:28;99384.81;;;2.69;100.00
8069;BME280;4077;43.702;24.896;2023-02-23T00:03:58;99393.56;;;2.76;100.00
8069;BME280;4077;43.702;24.896;2023-02-23T00:06:25;99395.31;;;2.77;100.00
8069;BME280;4077;43.702;24.896;2023-02-23T00:08:52;99393.56;;;2.76;100.00
8069;BME280;4077;43.702;24.896;2023-02-23T00:11:18;99398.00;;;2.81;100.00
8069;BME280;4077;43.702;24.896;2023-02-23T00:13:46;99408.31;;;2.83;100.00
8069;BME280;4077;43.702;24.896;2023-02-23T00:16:19;99408.31;;;2.83;100.00
8069;BME280;4077;43.702;24.896;2023-02-23T00:18:53;99403.66;;;2.74;100.00
8069;BME280;4077;43.702;24.896;2023-02-23T00:21:22;99412.84;;;2.69;100.00
8069;BME280;4077;43.702;24.896;2023-02-23T00:23:50;99413.56;;;2.66;100.00
8069;BME280;4077;43.702;24.896;2023-02-23T00:26:17;99403.09;;;2.60;100.00
8069;BME280;4077;43.702;24.896;2023-02-23T00:28:45;99413.19;;;2.57;100.00
8069;BME280;4077;43.702;24.896;2023-02-23T00:31:11;99410.81;;;2.41;100.00
8069;BME280;4077;43.702;24.896;2023-02-23T00:33:37;99400.03;;;2.27;100.00
8069;BME280;4077;43.702;24.896;2023-02-23T00:36:05;99412.13;;;2.33;100.00
8069;BME280;4077;43.702;24.896;2023-02-23T00:38:32;99403.44;;;2.28;100.00
8069;BME280;4077;43.702;24.896;2023-02-23T00:41:04;99407.59;;;2.26;100.00
8069;BME280;4077;43.702;24.896;2023-02-23T00:43:36;99412.41;;;2.19;100.00
8069;BME280;4077;43.702;24.896;2023-02-23T00:46:02;99400.66;;;2.02;100.00
8069;BME280;4077;43.702;24.896;2023-02-23T00:48:31;99405.72;;;2.02;100.00
8069;BME280;4077;43.702;24.896;2023-02-23T00:50:58;99399.72;;;2.00;100.00
8069;BME280;4077;43.702;24.896;2023-02-23T00:53:24;99398.63;;;1.95;100.00
8069;BME280;4077;43.702;24.896;2023-02-23T00:55:52;99398.63;;;1.95;100.00
8069;BME280;4077;43.702;24.896;2023-02-23T00:58:17;99405.63;;;1.99;100.00
8069;BME280;4077;43.702;24.896;2023-02-23T01:00:42;99405.34;;;1.93;100.00
8069;BME280;4077;43.702;24.896;2023-02-23T01:03:08;99382.88;;;1.84;100.00
8069;BME280;4077;43.702;24.896;2023-02-23T01:05:34;99397.16;;;2.00;100.00
8069;BME280;4077;43.702;24.896;2023-02-23T01:07:59;99402.38;;;2.03;100.00
8069;BME280;4077;43.702;24.896;2023-02-23T01:10:25;99403.84;;;1.98;100.00
8069;BME280;4077;43.702;24.896;2023-02-23T01:12:51;99400.75;;;2.05;100.00
8069;BME280;4077;43.702;24.896;2023-02-23T01:15:18;99402.53;;;2.06;100.00
8069;BME280;4077;43.702;24.896;2023-02-23T01:17:45;99397.03;;;1.97;100.00
8069;BME280;4077;43.702;24.896;2023-02-23T01:20:13;99402.91;;;1.96;100.00
8069;BME280;4077;43.702;24.896;2023-02-23T01:22:41;99400.25;;;1.93;100.00
8069;BME280;4077;43.702;24.896;2023-02-23T01:25:07;99405.34;;;1.93;100.00
8069;BME280;4077;43.702;24.896;2023-02-23T01:27:32;99403.19;;;1.83;100.00
8069;BME280;4077;43.702;24.896;2023-02-23T01:29:59;99402.78;;;1.74;100.00
8069;BME280;4077;43.702;24.896;2023-02-23T01:32:25;99390.44;;;1.63;100.00
8069;BME280;4077;43.702;24.896;2023-02-23T01:34:50;99386.97;;;1.61;100.00
8069;BME280;4077;43.702;24.896;2023-02-23T01:37:16;99400.81;;;1.68;100.00
8069;BME280;4077;43.702;24.896;2023-02-23T01:39:41;99404.09;;;1.66;100.00
8069;BME280;4077;43.702;24.896;2023-02-23T01:42:12;99394.66;;;1.63;100.00
8069;BME280;4077;43.702;24.896;2023-02-23T01:47:04;99402.88;;;1.57;100.00
8069;BME280;4077;43.702;24.896;2023-02-23T01:49:32;99405.41;;;1.57;100.00
8069;BME280;4077;43.702;24.896;2023-02-23T01:52:00;99399.16;;;1.51;100.00
8069;BME280;4077;43.702;24.896;2023-02-23T01:54:30;99402.53;;;1.50;100.00
8069;BME280;4077;43.702;24.896;2023-02-23T01:56:59;99401.25;;;1.40;100.00
8069;BME280;4077;43.702;24.896;2023-02-23T01:59:29;99403.56;;;1.35;100.00
8069;BME280;4077;43.702;24.896;2023-02-23T02:01:58;99408.66;;;1.35;100.00
8069;BME280;4077;43.702;24.896;2023-02-23T02:04:23;99409.09;;;1.27;100.00
8069;BME280;4077;43.702;24.896;2023-02-23T02:06:51;99412.06;;;1.36;100.00
8069;BME280;4077;43.702;24.896;2023-02-23T02:09:21;99417.44;;;1.42;100.00
8069;BME280;4077;43.702;24.896;2023-02-23T02:11:50;99417.09;;;1.34;100.00
8069;BME280;4077;43.702;24.896;2023-02-23T02:14:26;99408.81;;;1.21;100.00
8069;BME280;4077;43.702;24.896;2023-02-23T02:34:32;99398.81;;;1.24;100.00
8069;BME280;4077;43.702;24.896;2023-02-23T02:43:14;99411.19;;;1.35;100.00
8069;BME280;4077;43.702;24.896;2023-02-23T02:46:00;99414.75;;;1.39;100.00
8069;BME280;4077;43.702;24.896;2023-02-23T02:51:43;99418.53;;;1.47;100.00
8069;BME280;4077;43.702;24.896;2023-02-23T02:54:17;99421.41;;;1.55;100.00
8069;BME280;4077;43.702;24.896;2023-02-23T02:56:45;99424.13;;;1.40;100.00
8069;BME280;4077;43.702;24.896;2023-02-23T02:59:16;99419.56;;;1.33;100.00
8069;BME280;4077;43.702;24.896;2023-02-23T03:02:02;99422.31;;;1.20;100.00
8069;BME280;4077;43.702;24.896;2023-02-23T03:04:47;99429.00;;;1.18;100.00
8069;BME280;4077;43.702;24.896;2023-02-23T03:07:58;99433.44;;;1.22;100.00
8069;BME280;4077;43.702;24.896;2023-02-23T03:11:02;99423.47;;;1.08;100.00
8069;BME280;4077;43.702;24.896;2023-02-23T03:19:34;99438.59;;;1.05;100.00
8069;BME280;4077;43.702;24.896;2023-02-23T03:25:21;99441.94;;;1.04;100.00
8069;BME280;4077;43.702;24.896;2023-02-23T03:28:20;99435.13;;;1.03;100.00
8069;BME280;4077;43.702;24.896;2023-02-23T03:34:00;99448.88;;;1.08;100.00
8069;BME280;4077;43.702;24.896;2023-02-23T03:36:54;99451.38;;;1.07;100.00
8069;BME280;4077;43.702;24.896;2023-02-23T03:39:45;99443.81;;;1.08;100.00
8069;BME280;4077;43.702;24.896;2023-02-23T03:42:34;99462.69;;;1.14;100.00
8069;BME280;4077;43.702;24.896;2023-02-23T03:45:22;99459.34;;;1.15;100.00
8069;BME280;4077;43.702;24.896;2023-02-23T03:48:09;99448.59;;;1.02;100.00
8069;BME280;4077;43.702;24.896;2023-02-23T03:50:59;99461.16;;;0.99;100.00
8069;BME280;4077;43.702;24.896;2023-02-23T03:53:57;99444.13;;;0.97;100.00
8069;BME280;4077;43.702;24.896;2023-02-23T03:56:46;99449.25;;;0.98;100.00
8069;BME280;4077;43.702;24.896;2023-02-23T03:59:37;99451.88;;;1.00;100.00
8069;BME280;4077;43.702;24.896;2023-02-23T04:02:23;99459.78;;;1.06;100.00
8069;BME280;4077;43.702;24.896;2023-02-23T04:05:16;99459.53;;;1.18;100.00
8069;BME280;4077;43.702;24.896;2023-02-23T04:08:02;99452.66;;;1.17;100.00
8069;BME280;4077;43.702;24.896;2023-02-23T04:10:57;99454.50;;;1.19;100.00
8069;BME280;4077;43.702;24.896;2023-02-23T04:13:45;99434.09;;;1.18;100.00
8069;BME280;4077;43.702;24.896;2023-02-23T04:16:13;99453.25;;;1.29;100.00
8069;BME280;4077;43.702;24.896;2023-02-23T04:18:39;99460.97;;;1.30;100.00
8069;BME280;4077;43.702;24.896;2023-02-23T04:21:05;99461.25;;;1.36;100.00
8069;BME280;4077;43.702;24.896;2023-02-23T04:23:31;99463.88;;;1.38;100.00
8069;BME280;4077;43.702;24.896;2023-02-23T04:25:57;99458.19;;;1.44;100.00
8069;BME280;4077;43.702;24.896;2023-02-23T04:28:24;99474.41;;;1.46;100.00
8069;BME280;4077;43.702;24.896;2023-02-23T04:30:51;99472.88;;;1.49;100.00
8069;BME280;4077;43.702;24.896;2023-02-23T04:33:19;99469.44;;;1.49;100.00
8069;BME280;4077;43.702;24.896;2023-02-23T04:35:53;99480.56;;;1.51;100.00
8069;BME280;4077;43.702;24.896;2023-02-23T04:38:19;99482.97;;;1.48;100.00
8069;BME280;4077;43.702;24.896;2023-02-23T04:40:44;99476.66;;;1.40;100.00
8069;BME280;4077;43.702;24.896;2023-02-23T04:43:14;99475.91;;;1.42;100.00
8069;BME280;4077;43.702;24.896;2023-02-23T04:45:39;99464.22;;;1.28;100.00
8069;BME280;4077;43.702;24.896;2023-02-23T04:48:05;99477.81;;;1.46;100.00
8069;BME280;4077;43.702;24.896;2023-02-23T04:50:30;99491.63;;;1.51;100.00
8069;BME280;4077;43.702;24.896;2023-02-23T04:52:56;99493.00;;;1.45;100.00
8069;BME280;4077;43.702;24.896;2023-02-23T04:55:23;99482.63;;;1.40;100.00
8069;BME280;4077;43.702;24.896;2023-02-23T04:57:50;99491.84;;;1.38;100.00
8069;BME280;4077;43.702;24.896;2023-02-23T05:00:17;99492.78;;;1.40;100.00
8069;BME280;4077;43.702;24.896;2023-02-23T05:02:43;99496.25;;;1.42;100.00
8069;BME280;4077;43.702;24.896;2023-02-23T05:05:09;99503.59;;;1.36;100.00
8069;BME280;4077;43.702;24.896;2023-02-23T05:07:35;99503.97;;;1.26;100.00
8069;BME280;4077;43.702;24.896;2023-02-23T05:10:01;99510.34;;;1.18;100.00
8069;BME280;4077;43.702;24.896;2023-02-23T05:12:26;99507.66;;;1.15;100.00
8069;BME280;4077;43.702;24.896;2023-02-23T05:14:52;99504.41;;;1.17;100.00
8069;BME280;4077;43.702;24.896;2023-02-23T05:17:17;99509.19;;;1.11;100.00
8069;BME280;4077;43.702;24.896;2023-02-23T05:19:42;99514.09;;;1.08;100.00
8069;BME280;4077;43.702;24.896;2023-02-23T05:22:08;99505.97;;;0.97;100.00
8069;BME280;4077;43.702;24.896;2023-02-23T05:24:38;99518.81;;;1.00;100.00
8069;BME280;4077;43.702;24.896;2023-02-23T05:27:03;99507.22;;;0.89;100.00
8069;BME280;4077;43.702;24.896;2023-02-23T05:29:29;99518.69;;;0.81;100.00
8069;BME280;4077;43.702;24.896;2023-02-23T05:31:54;99521.72;;;0.74;100.00
8069;BME280;4077;43.702;24.896;2023-02-23T05:34:19;99521.72;;;0.74;100.00
8069;BME280;4077;43.702;24.896;2023-02-23T05:36:45;99523.31;;;0.72;100.00
8069;BME280;4077;43.702;24.896;2023-02-23T05:39:10;99533.47;;;0.72;100.00
8069;BME280;4077;43.702;24.896;2023-02-23T05:41:36;99533.16;;;0.66;100.00
8069;BME280;4077;43.702;24.896;2023-02-23T05:44:02;99537.03;;;0.59;100.00
8069;BME280;4077;43.702;24.896;2023-02-23T05:46:27;99539.19;;;0.51;100.00
8069;BME280;4077;43.702;24.896;2023-02-23T05:48:58;99552.28;;;0.59;100.00
8069;BME280;4077;43.702;24.896;2023-02-23T05:51:26;99554.44;;;0.51;100.00
8069;BME280;4077;43.702;24.896;2023-02-23T05:53:52;99554.81;;;0.59;100.00
8069;BME280;4077;43.702;24.896;2023-02-23T05:56:18;99550.00;;;0.64;100.00
8069;BME280;4077;43.702;24.896;2023-02-23T05:58:48;99550.63;;;0.76;100.00
8069;BME280;4077;43.702;24.896;2023-02-23T06:01:15;99564.41;;;0.81;100.00
8069;BME280;4077;43.702;24.896;2023-02-23T06:03:41;99551.63;;;0.79;100.00
8069;BME280;4077;43.702;24.896;2023-02-23T06:06:07;99575.22;;;0.93;100.00
8069;BME280;4077;43.702;24.896;2023-02-23T06:08:33;99569.56;;;0.99;100.00
8069;BME280;4077;43.702;24.896;2023-02-23T06:10:58;99581.22;;;1.12;100.00
8069;BME280;4077;43.702;24.896;2023-02-23T06:13:24;99576.94;;;1.11;100.00
8069;BME280;4077;43.702;24.896;2023-02-23T06:15:50;99589.53;;;1.25;100.00
8069;BME280;4077;43.702;24.896;2023-02-23T06:18:17;99591.03;;;1.38;100.00
8069;BME280;4077;43.702;24.896;2023-02-23T06:20:42;99585.34;;;1.44;100.00
8069;BME280;4077;43.702;24.896;2023-02-23T06:23:08;99593.81;;;1.60;100.00
8069;BME280;4077;43.702;24.896;2023-02-23T06:25:33;99597.88;;;1.75;100.00
8069;BME280;4077;43.702;24.896;2023-02-23T06:27:59;99600.22;;;1.88;100.00
8069;BME280;4077;43.702;24.896;2023-02-23T06:30:24;99604.88;;;1.97;100.00
8069;BME280;4077;43.702;24.896;2023-02-23T06:32:50;99611.53;;;2.12;100.00
8069;BME280;4077;43.702;24.896;2023-02-23T06:35:16;99607.38;;;2.32;100.00
8069;BME280;4077;43.702;24.896;2023-02-23T06:37:41;99608.22;;;2.51;100.00
8069;BME280;4077;43.702;24.896;2023-02-23T06:40:08;99621.44;;;2.81;100.00
8069;BME280;4077;43.702;24.896;2023-02-23T06:42:34;99616.75;;;2.90;100.00
8069;BME280;4077;43.702;24.896;2023-02-23T06:45:02;99611.66;;;3.09;100.00
8069;BME280;4077;43.702;24.896;2023-02-23T06:47:27;99619.34;;;3.30;100.00
8069;BME280;4077;43.702;24.896;2023-02-23T06:49:53;99626.34;;;3.55;100.00
8069;BME280;4077;43.702;24.896;2023-02-23T06:52:19;99626.47;;;3.79;100.00
8069;BME280;4077;43.702;24.896;2023-02-23T06:54:44;99620.47;;;4.20;100.00
8069;BME280;4077;43.702;24.896;2023-02-23T06:57:10;99632.28;;;5.84;100.00
8069;BME280;4077;43.702;24.896;2023-02-23T06:59:36;99660.03;;;8.09;100.00
8069;BME280;4077;43.702;24.896;2023-02-23T07:02:02;99672.63;;;9.55;100.00
8069;BME280;4077;43.702;24.896;2023-02-23T07:04:32;99690.25;;;10.90;80.58
8069;BME280;4077;43.702;24.896;2023-02-23T07:06:57;99690.34;;;11.69;71.35
8069;BME280;4077;43.702;24.896;2023-02-23T07:09:23;99699.53;;;12.29;65.96
8069;BME280;4077;43.702;24.896;2023-02-23T07:11:49;99706.69;;;12.64;62.68
8069;BME280;4077;43.702;24.896;2023-02-23T07:14:14;99707.00;;;13.19;59.99
8069;BME280;4077;43.702;24.896;2023-02-23T07:16:40;99716.69;;;13.64;57.66
8069;BME280;4077;43.702;24.896;2023-02-23T07:19:05;99731.47;;;14.34;55.46
8069;BME280;4077;43.702;24.896;2023-02-23T07:21:32;99732.22;;;15.23;53.15
8069;BME280;4077;43.702;24.896;2023-02-23T07:23:58;99734.69;;;15.58;50.49
8069;BME280;4077;43.702;24.896;2023-02-23T07:26:24;99734.78;;;15.40;50.27
8069;BME280;4077;43.702;24.896;2023-02-23T07:28:50;99728.78;;;15.15;50.08
8069;BME280;4077;43.702;24.896;2023-02-23T07:31:16;99741.84;;;15.04;50.48
8069;BME280;4077;43.702;24.896;2023-02-23T07:33:41;99732.28;;;14.95;50.49
8069;BME280;4077;43.702;24.896;2023-02-23T07:36:07;99736.66;;;14.24;52.01
8069;BME280;4077;43.702;24.896;2023-02-23T07:38:33;99736.59;;;13.79;52.52
8069;BME280;4077;43.702;24.896;2023-02-23T07:40:59;99728.75;;;13.45;53.85
8069;BME280;4077;43.702;24.896;2023-02-23T07:43:25;99732.94;;;13.22;54.67
8069;BME280;4077;43.702;24.896;2023-02-23T07:45:50;99732.84;;;13.06;54.97
8069;BME280;4077;43.702;24.896;2023-02-23T07:48:17;99731.31;;;13.42;55.42
8069;BME280;4077;43.702;24.896;2023-02-23T07:50:42;99730.34;;;13.22;54.76
8069;BME280;4077;43.702;24.896;2023-02-23T07:53:08;99732.16;;;13.39;54.65
8069;BME280;4077;43.702;24.896;2023-02-23T07:55:35;99741.69;;;13.42;55.14
8069;BME280;4077;43.702;24.896;2023-02-23T07:58:03;99742.53;;;13.41;55.21
8069;BME280;4077;43.702;24.896;2023-02-23T08:00:30;99739.88;;;13.29;55.50
8069;BME280;4077;43.702;24.896;2023-02-23T08:02:55;99735.63;;;13.38;55.93
8069;BME280;4077;43.702;24.896;2023-02-23T08:05:21;99741.75;;;13.60;55.80
8069;BME280;4077;43.702;24.896;2023-02-23T08:07:46;99740.88;;;13.57;54.98
8069;BME280;4077;43.702;24.896;2023-02-23T08:10:12;99743.25;;;13.12;56.01
8069;BME280;4077;43.702;24.896;2023-02-23T08:12:37;99738.72;;;12.78;57.61
8069;BME280;4077;43.702;24.896;2023-02-23T08:15:04;99729.00;;;12.43;58.31
8069;BME280;4077;43.702;24.896;2023-02-23T08:17:33;99732.22;;;12.21;59.68
8069;BME280;4077;43.702;24.896;2023-02-23T08:19:59;99718.97;;;11.83;60.18
8069;BME280;4077;43.702;24.896;2023-02-23T08:22:25;99737.75;;;11.71;61.25
8069;BME280;4077;43.702;24.896;2023-02-23T08:24:51;99739.47;;;11.67;61.98
8069;BME280;4077;43.702;24.896;2023-02-23T08:27:17;99737.75;;;11.68;62.37
8069;BME280;4077;43.702;24.896;2023-02-23T08:29:43;99731.56;;;11.54;63.25
8069;BME280;4077;43.702;24.896;2023-02-23T08:32:08;99738.38;;;11.47;62.78
8069;BME280;4077;43.702;24.896;2023-02-23T08:34:41;99731.31;;;11.35;63.04
8069;BME280;4077;43.702;24.896;2023-02-23T08:37:07;99742.53;;;11.39;62.71
8069;BME280;4077;43.702;24.896;2023-02-23T08:39:33;99734.63;;;11.23;65.52
8069;BME280;4077;43.702;24.896;2023-02-23T08:41:58;99738.22;;;11.36;64.78
8069;BME280;4077;43.702;24.896;2023-02-23T08:44:24;99732.22;;;11.39;64.66
8069;BME280;4077;43.702;24.896;2023-02-23T08:46:49;99736.66;;;11.50;64.26
8069;BME280;4077;43.702;24.896;2023-02-23T08:49:15;99743.69;;;11.61;64.13
8069;BME280;4077;43.702;24.896;2023-02-23T08:51:40;99746.38;;;11.70;64.72
8069;BME280;4077;43.702;24.896;2023-02-23T08:54:07;99747.25;;;11.72;63.69
8069;BME280;4077;43.702;24.896;2023-02-23T08:56:38;99722.94;;;11.55;64.98
8069;BME280;4077;43.702;24.896;2023-02-23T08:59:04;99749.28;;;11.99;64.46
8069;BME280;4077;43.702;24.896;2023-02-23T09:01:29;99746.81;;;12.10;64.27
8069;BME280;4077;43.702;24.896;2023-02-23T09:03:55;99750.44;;;12.31;63.37
8069;BME280;4077;43.702;24.896;2023-02-23T09:06:22;99749.53;;;12.28;63.33
8069;BME280;4077;43.702;24.896;2023-02-23T09:08:49;99753.06;;;12.33;63.45
8069;BME280;4077;43.702;24.896;2023-02-23T09:11:15;99753.06;;;12.35;62.50
8069;BME280;4077;43.702;24.896;2023-02-23T09:13:40;99756.66;;;12.53;62.36
8069;BME280;4077;43.702;24.896;2023-02-23T09:16:06;99749.88;;;12.68;61.99
8069;BME280;4077;43.702;24.896;2023-02-23T09:18:32;99760.31;;;12.83;61.53
8069;BME280;4077;43.702;24.896;2023-02-23T09:20:58;99769.09;;;12.97;61.00
8069;BME280;4077;43.702;24.896;2023-02-23T09:23:27;99771.72;;;13.06;60.30
8069;BME280;4077;43.702;24.896;2023-02-23T09:25:53;99771.69;;;13.03;60.20
8069;BME280;4077;43.702;24.896;2023-02-23T09:28:20;99755.13;;;12.77;62.46
8069;BME280;4077;43.702;24.896;2023-02-23T09:30:45;99748.97;;;12.63;61.93
8069;BME280;4077;43.702;24.896;2023-02-23T09:33:12;99764.81;;;13.07;61.13
8069;BME280;4077;43.702;24.896;2023-02-23T09:35:38;99754.72;;;13.59;60.12
8069;BME280;4077;43.702;24.896;2023-02-23T09:38:04;99772.19;;;14.42;57.60
8069;BME280;4077;43.702;24.896;2023-02-23T09:48:26;99778.78;;;15.90;52.47
8069;BME280;4077;43.702;24.896;2023-02-23T09:50:57;99780.72;;;15.30;53.20
8069;BME280;4077;43.702;24.896;2023-02-23T09:55:57;99768.56;;;13.72;56.76
8069;BME280;4077;43.702;24.896;2023-02-23T09:58:28;99753.78;;;13.43;58.33
8069;BME280;4077;43.702;24.896;2023-02-23T10:01:19;99769.34;;;13.41;59.25
8069;BME280;4077;43.702;24.896;2023-02-23T10:04:10;99765.81;;;13.29;59.56
8069;BME280;4077;43.702;24.896;2023-02-23T10:06:39;99760.50;;;13.04;60.42
8069;BME280;4077;43.702;24.896;2023-02-23T10:15:00;99747.41;;;12.87;62.10
8069;BME280;4077;43.702;24.896;2023-02-23T10:23:11;99749.31;;;13.18;62.00
8069;BME280;4077;43.702;24.896;2023-02-23T10:25:43;99751.09;;;13.22;62.71
8069;BME280;4077;43.702;24.896;2023-02-23T10:28:18;99749.28;;;13.16;62.34
8069;BME280;4077;43.702;24.896;2023-02-23T10:30:47;99755.44;;;13.29;62.79
8069;BME280;4077;43.702;24.896;2023-02-23T10:33:29;99734.72;;;13.35;61.72
8069;BME280;4077;43.702;24.896;2023-02-23T10:36:09;99742.56;;;13.50;62.17
8069;BME280;4077;43.702;24.896;2023-02-23T10:38:36;99748.72;;;13.74;61.79
8069;BME280;4077;43.702;24.896;2023-02-23T10:41:02;99743.41;;;13.41;61.34
8069;BME280;4077;43.702;24.896;2023-02-23T10:43:28;99743.22;;;13.09;62.74
8069;BME280;4077;43.702;24.896;2023-02-23T10:45:54;99738.16;;;13.28;63.35
8069;BME280;4077;43.702;24.896;2023-02-23T10:48:27;99743.44;;;13.46;62.83
8069;BME280;4077;43.702;24.896;2023-02-23T10:50:56;99727.91;;;13.52;62.24
8069;BME280;4077;43.702;24.896;2023-02-23T10:53:31;99740.88;;;13.54;61.82
8069;BME280;4077;43.702;24.896;2023-02-23T10:56:18;99745.22;;;13.70;62.07
8069;BME280;4077;43.702;24.896;2023-02-23T10:58:46;99739.09;;;13.51;61.69
8069;BME280;4077;43.702;24.896;2023-02-23T11:01:14;99734.78;;;13.50;61.88
8069;BME280;4077;43.702;24.896;2023-02-23T11:03:41;99741.66;;;13.33;62.86
8069;BME280;4077;43.702;24.896;2023-02-23T11:06:37;99734.72;;;13.29;63.36
8069;BME280;4077;43.702;24.896;2023-02-23T11:09:27;99729.56;;;13.32;62.67
8069;BME280;4077;43.702;24.896;2023-02-23T11:14:28;99726.94;;;13.29;63.22
8069;BME280;4077;43.702;24.896;2023-02-23T11:16:58;99727.81;;;13.34;63.32
8069;BME280;4077;43.702;24.896;2023-02-23T11:19:37;99722.41;;;12.94;64.08
8069;BME280;4077;43.702;24.896;2023-02-23T11:22:06;99715.41;;;12.81;65.27
8069;BME280;4077;43.702;24.896;2023-02-23T11:24:38;99713.72;;;12.86;66.02
8069;BME280;4077;43.702;24.896;2023-02-23T11:27:06;99715.50;;;12.96;65.47
8069;BME280;4077;43.702;24.896;2023-02-23T11:29:44;99722.50;;;13.12;64.77
8069;BME280;4077;43.702;24.896;2023-02-23T11:32:41;99715.50;;;12.96;65.96
8069;BME280;4077;43.702;24.896;2023-02-23T11:35:26;99699.69;;;12.50;67.44
8069;BME280;4077;43.702;24.896;2023-02-23T11:37:52;99711.72;;;12.45;68.74
8069;BME280;4077;43.702;24.896;2023-02-23T11:40:30;99710.13;;;12.63;68.44
8069;BME280;4077;43.702;24.896;2023-02-23T11:43:08;99703.25;;;12.65;69.29
8069;BME280;4077;43.702;24.896;2023-02-23T11:45:54;99701.56;;;12.70;68.40
8069;BME280;4077;43.702;24.896;2023-02-23T11:50:50;99706.75;;;12.73;70.54
8069;BME280;4077;43.702;24.896;2023-02-23T11:53:23;99710.31;;;12.93;69.63
8069;BME280;4077;43.702;24.896;2023-02-23T11:55:54;99708.63;;;13.01;68.62
8069;BME280;4077;43.702;24.896;2023-02-23T11:58:26;99721.63;;;13.09;68.28
8069;BME280;4077;43.702;24.896;2023-02-23T12:01:03;99710.28;;;12.87;68.29
8069;BME280;4077;43.702;24.896;2023-02-23T12:03:37;99712.00;;;12.85;69.46
8069;BME280;4077;43.702;24.896;2023-02-23T12:06:08;99710.28;;;12.88;69.52
8069;BME280;4077;43.702;24.896;2023-02-23T12:08:44;99718.94;;;12.91;69.00
8069;BME280;4077;43.702;24.896;2023-02-23T12:11:16;99717.25;;;13.02;68.21
8069;BME280;4077;43.702;24.896;2023-02-23T12:13:52;99716.41;;;13.00;68.26
8069;BME280;4077;43.702;24.896;2023-02-23T12:16:38;99715.66;;;13.21;67.94
8069;BME280;4077;43.702;24.896;2023-02-23T12:22:14;99720.63;;;12.88;68.96
8069;BME280;4077;43.702;24.896;2023-02-23T12:24:49;99708.50;;;12.80;69.23
8069;BME280;4077;43.702;24.896;2023-02-23T12:32:42;99704.09;;;12.64;69.78
8069;BME280;4077;43.702;24.896;2023-02-23T12:35:30;99706.81;;;12.86;69.61
8069;BME280;4077;43.702;24.896;2023-02-23T12:38:01;99710.31;;;12.96;69.31
8069;BME280;4077;43.702;24.896;2023-02-23T12:40:32;99708.66;;;13.10;68.83
8069;BME280;4077;43.702;24.896;2023-02-23T12:46:05;99688.69;;;12.88;68.64
8069;BME280;4077;43.702;24.896;2023-02-23T12:51:32;99710.16;;;12.64;71.07
8069;BME280;4077;43.702;24.896;2023-02-23T12:54:00;99709.31;;;12.71;71.58
8069;BME280;4077;43.702;24.896;2023-02-23T12:59:22;99713.69;;;12.83;72.18
8069;BME280;4077;43.702;24.896;2023-02-23T13:13:21;99709.66;;;13.31;69.50
8069;BME280;4077;43.702;24.896;2023-02-23T13:15:59;99703.69;;;13.53;69.07
8069;BME280;4077;43.702;24.896;2023-02-23T13:21:18;99703.66;;;13.44;69.96
8069;BME280;4077;43.702;24.896;2023-02-23T13:31:34;99713.19;;;13.45;71.16
8069;BME280;4077;43.702;24.896;2023-02-23T13:34:02;99703.66;;;13.50;70.13
8069;BME280;4077;43.702;24.896;2023-02-23T13:36:30;99706.28;;;13.53;70.46
8069;BME280;4077;43.702;24.896;2023-02-23T13:42:42;99693.19;;;13.23;69.68
8069;BME280;4077;43.702;24.896;2023-02-23T13:49:51;99690.38;;;12.81;73.26
8069;BME280;4077;43.702;24.896;2023-02-23T13:52:39;99702.53;;;12.93;73.57
8069;BME280;4077;43.702;24.896;2023-02-23T13:57:55;99703.31;;;12.77;73.24
8069;BME280;4077;43.702;24.896;2023-02-23T14:00:27;99705.75;;;12.51;73.71
8069;BME280;4077;43.702;24.896;2023-02-23T14:02:53;99701.28;;;12.35;76.15
8069;BME280;4077;43.702;24.896;2023-02-23T14:05:26;99704.56;;;12.12;78.56
8069;BME280;4077;43.702;24.896;2023-02-23T14:08:00;99701.91;;;12.03;80.12
8069;BME280;4077;43.702;24.896;2023-02-23T14:10:34;99697.59;;;12.07;81.32
8069;BME280;4077;43.702;24.896;2023-02-23T14:21:12;99717.63;;;11.45;96.13
8069;BME280;4077;43.702;24.896;2023-02-23T14:26:34;99717.38;;;11.21;100.00
8069;BME280;4077;43.702;24.896;2023-02-23T14:32:16;99719.06;;;11.19;100.00
8069;BME280;4077;43.702;24.896;2023-02-23T14:34:52;99719.97;;;11.24;100.00
8069;BME280;4077;43.702;24.896;2023-02-23T14:37:28;99698.16;;;11.01;100.00
8069;BME280;4077;43.702;24.896;2023-02-23T14:40:08;99706.16;;;11.20;99.37
8069;BME280;4077;43.702;24.896;2023-02-23T14:42:37;99719.47;;;10.84;100.00
8069;BME280;4077;43.702;24.896;2023-02-23T14:45:11;99722.00;;;10.83;100.00
8069;BME280;4077;43.702;24.896;2023-02-23T14:47:45;99716.31;;;10.45;100.00
8069;BME280;4077;43.702;24.896;2023-02-23T14:50:17;99720.81;;;10.58;100.00
8069;BME280;4077;43.702;24.896;2023-02-23T14:52:44;99730.13;;;10.50;100.00
8069;BME280;4077;43.702;24.896;2023-02-23T14:57:37;99717.59;;;10.21;100.00
8069;BME280;4077;43.702;24.896;2023-02-23T15:00:30;99727.91;;;10.21;100.00
8069;BME280;4077;43.702;24.896;2023-02-23T15:03:05;99712.56;;;10.26;100.00
8069;BME280;4077;43.702;24.896;2023-02-23T15:05:57;99728.13;;;10.30;100.00
8069;BME280;4077;43.702;24.896;2023-02-23T15:08:25;99724.34;;;10.13;100.00
8069;BME280;4077;43.702;24.896;2023-02-23T15:11:06;99728.50;;;10.03;100.00
8069;BME280;4077;43.702;24.896;2023-02-23T15:13:37;99716.09;;;9.84;100.00
8069;BME280;4077;43.702;24.896;2023-02-23T15:16:06;99718.72;;;9.85;100.00
8069;BME280;4077;43.702;24.896;2023-02-23T15:18:37;99729.72;;;9.77;100.00
8069;BME280;4077;43.702;24.896;2023-02-23T15:21:15;99738.38;;;9.80;100.00
8069;BME280;4077;43.702;24.896;2023-02-23T15:23:47;99734.72;;;9.68;100.00
8069;BME280;4077;43.702;24.896;2023-02-23T15:28:41;99736.22;;;9.56;100.00
8069;BME280;4077;43.702;24.896;2023-02-23T15:31:09;99737.06;;;9.57;100.00
8069;BME280;4077;43.702;24.896;2023-02-23T15:33:36;99733.56;;;9.53;100.00
8069;BME280;4077;43.702;24.896;2023-02-23T15:38:33;99739.13;;;9.31;100.00
8069;BME280;4077;43.702;24.896;2023-02-23T15:41:03;99748.53;;;9.27;100.00
8069;BME280;4077;43.702;24.896;2023-02-23T15:43:31;99732.66;;;9.09;100.00
8069;BME280;4077;43.702;24.896;2023-02-23T15:46:03;99736.34;;;9.20;100.00
8069;BME280;4077;43.702;24.896;2023-02-23T15:48:42;99753.41;;;9.15;100.00